Time;durP1;ratioP1;P1;durP2;ratioP2;P2;SDS_P1;SDS_P2;PMS_P1;PMS_P2;Temp;Humidity;BMP_temperature;BMP_pressure;BME280_temperature;BME280_humidity;BME280_pressure;Samples;Min_cycle;Max_cycle;Signal;HPM_P1;HPM_P2
2022/10/23 00:01:42;;;;;;;27.13;17.80;;;;;;;;;;4992062;28;99290;-77
2022/10/23 00:04:13;;;;;;;30.00;19.50;;;;;;;;;;4991887;28;100728;-75
2022/10/23 00:06:40;;;;;;;39.08;20.42;;;;;;;;;;4990327;28;99471;-77
2022/10/23 00:09:07;;;;;;;26.67;18.98;;;;;;;;;;5000593;28;98425;-77
2022/10/23 00:11:34;;;;;;;28.92;20.15;;;;;;;;;;5011038;28;100177;-77
2022/10/23 00:14:02;;;;;;;29.80;19.38;;;;;;;;;;5014679;28;100082;-77
2022/10/23 00:16:29;;;;;;;31.65;20.25;;;;;;;;;;5011302;28;99134;-77
2022/10/23 00:18:55;;;;;;;28.50;20.02;;;;;;;;;;5000057;28;99352;-77
2022/10/23 00:21:22;;;;;;;33.47;19.92;;;;;;;;;;4991890;28;98938;-77
2022/10/23 00:23:49;;;;;;;29.25;21.52;;;;;;;;;;4991113;28;100045;-77
2022/10/23 00:26:15;;;;;;;42.13;21.77;;;;;;;;;;4990003;28;101155;-77
2022/10/23 00:28:42;;;;;;;30.08;20.38;;;;;;;;;;4991760;28;98800;-77
2022/10/23 00:31:09;;;;;;;30.77;21.42;;;;;;;;;;4990471;28;101633;-77
2022/10/23 00:33:35;;;;;;;23.88;19.50;;;;;;;;;;4990778;28;99233;-77
2022/10/23 00:36:05;;;;;;;29.27;21.40;;;;;;;;;;4995035;28;98570;-77
2022/10/23 00:38:31;;;;;;;27.63;20.17;;;;;;;;;;4989553;28;100281;-77
2022/10/23 00:40:58;;;;;;;27.58;21.73;;;;;;;;;;4991295;28;98467;-77
2022/10/23 00:43:26;;;;;;;33.15;22.38;;;;;;;;;;4992531;28;99895;-76
2022/10/23 00:45:52;;;;;;;31.08;21.00;;;;;;;;;;4989726;28;100511;-77
2022/10/23 00:48:19;;;;;;;31.13;21.55;;;;;;;;;;4989830;28;98606;-77
2022/10/23 00:50:46;;;;;;;28.63;20.17;;;;;;;;;;4991148;28;99211;-77
2022/10/23 00:53:14;;;;;;;38.00;21.30;;;;;;;;;;4990953;28;100211;-77
2022/10/23 00:55:45;;;;;;;31.92;21.48;;;;;;;;;;4989348;28;99011;-77
2022/10/23 00:58:12;;;;;;;32.50;21.77;;;;;;;;;;4994893;28;99211;-76
2022/10/23 01:00:41;;;;;;;29.90;21.02;;;;;;;;;;5003777;28;98487;-77
2022/10/23 01:03:07;;;;;;;28.50;19.65;;;;;;;;;;5011486;28;99201;-76
2022/10/23 01:05:40;;;;;;;34.17;20.75;;;;;;;;;;5011038;28;100188;-77
2022/10/23 01:08:11;;;;;;;32.33;19.67;;;;;;;;;;4999112;28;97960;-77
2022/10/23 01:10:46;;;;;;;28.13;20.42;;;;;;;;;;4991230;28;98418;-77
2022/10/23 01:13:36;;;;;;;26.05;18.83;;;;;;;;;;4990703;28;99021;-77
2022/10/23 01:16:22;;;;;;;25.90;19.05;;;;;;;;;;4970331;28;99745;-76
2022/10/23 01:18:58;;;;;;;27.30;18.75;;;;;;;;;;4974259;28;100720;-77
2022/10/23 01:21:33;;;;;;;25.15;18.85;;;;;;;;;;4972093;28;98431;-76
2022/10/23 01:24:00;;;;;;;33.20;20.17;;;;;;;;;;4970754;28;100050;-78
2022/10/23 01:26:46;;;;;;;29.50;20.13;;;;;;;;;;4971327;28;99303;-77
2022/10/23 01:29:19;;;;;;;34.75;21.45;;;;;;;;;;4969413;28;98747;-77
2022/10/23 01:31:52;;;;;;;28.95;20.10;;;;;;;;;;4971017;28;98756;-77
2022/10/23 01:34:25;;;;;;;29.45;19.80;;;;;;;;;;4981466;28;101238;-77
2022/10/23 01:36:52;;;;;;;25.85;18.90;;;;;;;;;;4989623;28;98960;-77
2022/10/23 01:39:24;;;;;;;24.88;18.70;;;;;;;;;;4990721;28;98387;-77
2022/10/23 01:41:54;;;;;;;35.08;21.95;;;;;;;;;;4991794;28;101190;-77
2022/10/23 01:44:35;;;;;;;31.33;20.77;;;;;;;;;;4988626;28;102021;-77
2022/10/23 01:47:04;;;;;;;29.52;20.65;;;;;;;;;;4988668;28;98606;-77
2022/10/23 01:49:34;;;;;;;34.95;19.23;;;;;;;;;;4990059;28;98464;-77
2022/10/23 01:52:05;;;;;;;25.70;19.13;;;;;;;;;;4992552;28;99714;-77
2022/10/23 01:54:34;;;;;;;28.23;19.42;;;;;;;;;;4993044;28;100332;-77
2022/10/23 01:57:01;;;;;;;30.58;19.45;;;;;;;;;;4993396;28;98629;-77
2022/10/23 01:59:36;;;;;;;32.03;20.83;;;;;;;;;;4989785;28;101226;-77
2022/10/23 02:02:05;;;;;;;32.80;22.65;;;;;;;;;;4990352;28;99414;-76
2022/10/23 02:04:37;;;;;;;32.83;21.23;;;;;;;;;;4995174;28;98567;-77
2022/10/23 02:07:03;;;;;;;33.23;21.50;;;;;;;;;;4991706;28;102374;-77
2022/10/23 02:09:30;;;;;;;34.15;20.08;;;;;;;;;;4992242;28;98498;-77
2022/10/23 02:12:07;;;;;;;30.48;21.35;;;;;;;;;;4992825;28;99539;-77
2022/10/23 02:14:44;;;;;;;35.83;21.08;;;;;;;;;;4991721;28;100711;-77
2022/10/23 02:17:17;;;;;;;29.05;20.02;;;;;;;;;;4992464;28;98411;-77
2022/10/23 02:19:44;;;;;;;;;;;;;;;;;;4992234;28;101500;-77
2022/10/23 02:22:21;;;;;;;30.63;18.75;;;;;;;;;;4995198;28;129310;-77
2022/10/23 02:24:51;;;;;;;29.98;19.02;;;;;;;;;;5000324;28;97772;-77
2022/10/23 02:27:28;;;;;;;29.77;19.13;;;;;;;;;;5015403;28;100178;-77
2022/10/23 02:29:59;;;;;;;37.08;21.63;;;;;;;;;;5013892;28;98452;-77
2022/10/23 02:32:29;;;;;;;28.17;19.02;;;;;;;;;;5011313;28;100089;-77
2022/10/23 02:34:55;;;;;;;38.90;21.30;;;;;;;;;;5013152;28;99374;-76
2022/10/23 02:37:24;;;;;;;29.70;20.10;;;;;;;;;;4996006;28;98520;-77
2022/10/23 02:39:51;;;;;;;29.05;19.85;;;;;;;;;;4992723;28;100101;-78
2022/10/23 02:42:27;;;;;;;27.70;19.42;;;;;;;;;;5002174;28;101913;-77
2022/10/23 02:44:58;;;;;;;32.33;18.92;;;;;;;;;;5012269;28;98565;-77
2022/10/23 02:47:27;;;;;;;35.35;18.65;;;;;;;;;;5011905;28;101767;-77
2022/10/23 02:50:01;;;;;;;39.33;18.00;;;;;;;;;;5015870;28;100769;-77
2022/10/23 02:52:34;;;;;;;28.70;17.58;;;;;;;;;;5013820;28;98509;-77
2022/10/23 02:55:18;;;;;;;26.33;17.95;;;;;;;;;;5010946;28;101556;-77
2022/10/23 02:57:53;;;;;;;31.92;18.23;;;;;;;;;;5011930;28;99629;-77
2022/10/23 03:00:21;;;;;;;28.92;17.42;;;;;;;;;;5010351;28;102782;-76
2022/10/23 03:02:53;;;;;;;27.83;16.65;;;;;;;;;;5011989;28;100120;-77
2022/10/23 03:05:22;;;;;;;29.13;18.77;;;;;;;;;;5009457;28;98594;-77
2022/10/23 03:07:48;;;;;;;28.30;17.05;;;;;;;;;;4992054;28;100001;-76
2022/10/23 03:10:16;;;;;;;23.85;16.95;;;;;;;;;;4991952;28;101633;-77
2022/10/23 03:12:43;;;;;;;27.02;18.13;;;;;;;;;;4995341;28;98766;-76
2022/10/23 03:15:11;;;;;;;35.58;18.42;;;;;;;;;;4993352;28;98433;-77
2022/10/23 03:17:38;;;;;;;28.38;17.40;;;;;;;;;;5012121;28;98511;-77
2022/10/23 03:20:06;;;;;;;28.73;17.90;;;;;;;;;;5013254;28;98811;-77
2022/10/23 03:22:34;;;;;;;25.65;15.80;;;;;;;;;;5010621;28;102582;-77
2022/10/23 03:25:00;;;;;;;28.23;16.60;;;;;;;;;;5010763;28;98612;-77
2022/10/23 03:27:29;;;;;;;35.25;18.83;;;;;;;;;;5011659;28;101319;-77
2022/10/23 03:29:55;;;;;;;31.73;17.25;;;;;;;;;;5010263;28;101884;-77
2022/10/23 03:32:21;;;;;;;42.38;18.00;;;;;;;;;;5015115;28;98542;-77
2022/10/23 03:34:48;;;;;;;28.00;17.50;;;;;;;;;;5012273;28;99275;-76
2022/10/23 03:37:14;;;;;;;29.45;17.83;;;;;;;;;;4994441;28;98624;-77
2022/10/23 03:39:41;;;;;;;26.08;17.20;;;;;;;;;;4992245;28;100057;-76
2022/10/23 03:42:07;;;;;;;26.05;17.08;;;;;;;;;;4992322;28;99761;-76
2022/10/23 03:44:34;;;;;;;37.35;17.77;;;;;;;;;;4990418;28;98889;-76
2022/10/23 03:47:01;;;;;;;32.78;17.73;;;;;;;;;;4991057;28;101040;-77
2022/10/23 03:49:27;;;;;;;32.10;18.33;;;;;;;;;;4992617;28;99074;-77
2022/10/23 03:52:00;;;;;;;;;;;;;;;;;;4991694;28;98567;-77
2022/10/23 03:54:27;;;;;;;36.78;19.40;;;;;;;;;;4995382;28;128767;-77
2022/10/23 03:56:53;;;;;;;28.02;16.08;;;;;;;;;;4992056;28;98529;-77
2022/10/23 03:59:24;;;;;;;33.83;18.35;;;;;;;;;;4991384;28;100809;-77
2022/10/23 04:01:53;;;;;;;33.47;17.48;;;;;;;;;;4989114;28;99895;-78
2022/10/23 04:04:22;;;;;;;35.38;17.65;;;;;;;;;;4992048;28;97730;-77
2022/10/23 04:06:49;;;;;;;30.83;18.63;;;;;;;;;;4997025;28;99390;-77
2022/10/23 04:09:17;;;;;;;26.80;16.67;;;;;;;;;;4991095;28;100484;-77
2022/10/23 04:11:43;;;;;;;29.63;15.55;;;;;;;;;;4989832;28;99265;-77
2022/10/23 04:14:10;;;;;;;28.77;16.92;;;;;;;;;;4990244;28;102925;-77
2022/10/23 04:16:37;;;;;;;23.83;16.45;;;;;;;;;;4994379;28;101997;-77
2022/10/23 04:19:04;;;;;;;29.15;15.88;;;;;;;;;;4990053;28;101627;-77
2022/10/23 04:21:31;;;;;;;26.23;16.40;;;;;;;;;;4991546;28;99426;-76
2022/10/23 04:23:57;;;;;;;27.55;16.67;;;;;;;;;;4999037;28;98566;-76
2022/10/23 04:26:23;;;;;;;37.75;16.88;;;;;;;;;;5009548;28;102659;-77
2022/10/23 04:28:50;;;;;;;25.27;15.02;;;;;;;;;;5012380;28;98285;-77
2022/10/23 04:31:16;;;;;;;28.13;15.10;;;;;;;;;;5010749;28;98595;-77
2022/10/23 04:33:42;;;;;;;28.73;16.25;;;;;;;;;;5010216;28;101699;-76
2022/10/23 04:36:19;;;;;;;25.42;15.18;;;;;;;;;;5000144;28;100079;-77
2022/10/23 04:38:46;;;;;;;24.25;14.02;;;;;;;;;;4994298;28;98537;-76
2022/10/23 04:41:13;;;;;;;31.25;14.73;;;;;;;;;;4999902;28;102156;-76
2022/10/23 04:43:39;;;;;;;24.15;14.07;;;;;;;;;;5010580;28;98535;-77
2022/10/23 04:46:06;;;;;;;29.63;15.30;;;;;;;;;;5009842;28;100843;-77
2022/10/23 04:48:32;;;;;;;26.85;15.90;;;;;;;;;;5009633;28;102222;-76
2022/10/23 04:51:17;;;;;;;29.27;14.02;;;;;;;;;;5010214;28;98369;-78
2022/10/23 04:54:06;;;;;;;23.63;14.05;;;;;;;;;;5011175;28;99734;-77
2022/10/23 04:56:43;;;;;;;25.80;13.82;;;;;;;;;;5010048;28;101533;-77
2022/10/23 04:59:14;;;;;;;29.00;15.30;;;;;;;;;;5008811;28;99699;-77
2022/10/23 05:01:41;;;;;;;24.95;13.88;;;;;;;;;;5011849;28;101299;-78
2022/10/23 05:04:08;;;;;;;32.15;14.95;;;;;;;;;;5009705;28;98653;-77
2022/10/23 05:06:54;;;;;;;34.97;14.15;;;;;;;;;;4990934;28;99055;-77
2022/10/23 05:09:34;;;;;;;32.05;15.23;;;;;;;;;;4970217;28;99310;-77
2022/10/23 05:12:25;;;;;;;26.08;14.60;;;;;;;;;;4972255;28;99041;-77
2022/10/23 05:14:52;;;;;;;32.28;14.45;;;;;;;;;;4993899;28;101599;-77
2022/10/23 05:17:25;;;;;;;30.80;14.02;;;;;;;;;;4991012;28;100138;-77
2022/10/23 05:19:53;;;;;;;24.13;13.85;;;;;;;;;;4990142;28;97947;-77
2022/10/23 05:22:19;;;;;;;31.73;14.50;;;;;;;;;;4991107;28;98901;-76
2022/10/23 05:24:51;;;;;;;29.65;14.75;;;;;;;;;;4992136;28;101161;-77
2022/10/23 05:27:21;;;;;;;30.40;13.32;;;;;;;;;;4989350;28;101453;-77
2022/10/23 05:29:49;;;;;;;30.67;14.13;;;;;;;;;;4988688;28;101090;-77
2022/10/23 05:32:19;;;;;;;24.50;13.38;;;;;;;;;;4989718;28;98662;-76
2022/10/23 05:34:46;;;;;;;30.52;15.77;;;;;;;;;;4989330;28;99132;-76
2022/10/23 05:37:14;;;;;;;30.10;13.88;;;;;;;;;;4989340;28;101642;-76
2022/10/23 05:39:41;;;;;;;30.13;14.00;;;;;;;;;;4990321;28;98646;-77
2022/10/23 05:42:11;;;;;;;17.63;13.02;;;;;;;;;;4988960;28;100317;-78
2022/10/23 05:44:39;;;;;;;19.05;13.13;;;;;;;;;;4993180;28;100832;-76
2022/10/23 05:47:25;;;;;;;20.45;12.90;;;;;;;;;;4989579;28;98482;-77
2022/10/23 05:50:00;;;;;;;28.55;13.50;;;;;;;;;;5005605;28;99304;-76
2022/10/23 05:52:32;;;;;;;24.67;13.45;;;;;;;;;;5009383;28;99213;-77
2022/10/23 05:55:21;;;;;;;26.52;13.80;;;;;;;;;;5002021;28;99492;-77
2022/10/23 05:57:56;;;;;;;28.27;15.93;;;;;;;;;;5009955;28;99537;-77
2022/10/23 06:00:41;;;;;;;35.95;13.95;;;;;;;;;;5002591;28;98596;-76
2022/10/23 06:03:27;;;;;;;28.52;13.80;;;;;;;;;;4981462;28;99632;-77
2022/10/23 06:05:54;;;;;;;26.50;14.15;;;;;;;;;;4988075;28;101970;-77
2022/10/23 06:08:25;;;;;;;24.98;13.63;;;;;;;;;;4992879;28;98707;-77
2022/10/23 06:10:52;;;;;;;27.92;14.63;;;;;;;;;;4988030;28;98834;-77
2022/10/23 06:13:19;;;;;;;27.17;14.55;;;;;;;;;;4988257;28;99530;-77
2022/10/23 06:15:45;;;;;;;27.50;13.98;;;;;;;;;;4987620;28;101408;-77
2022/10/23 06:18:18;;;;;;;28.30;13.60;;;;;;;;;;4986907;28;100904;-77
2022/10/23 06:20:52;;;;;;;23.95;12.82;;;;;;;;;;4989218;28;98463;-77
2022/10/23 06:23:23;;;;;;;30.52;13.23;;;;;;;;;;4988031;28;100792;-77
2022/10/23 06:26:16;;;;;;;30.13;12.93;;;;;;;;;;4974300;28;100567;-77
2022/10/23 06:29:06;;;;;;;24.23;12.70;;;;;;;;;;4976030;28;100208;-76
2022/10/23 06:31:32;;;;;;;23.88;13.55;;;;;;;;;;4996360;28;98551;-75
2022/10/23 06:34:00;;;;;;;30.08;13.55;;;;;;;;;;4984893;28;98745;-76
2022/10/23 06:36:28;;;;;;;21.20;13.77;;;;;;;;;;4988202;28;99064;-77
2022/10/23 06:39:04;;;;;;;26.00;13.20;;;;;;;;;;4990762;28;101581;-76
2022/10/23 06:42:06;;;;;;;22.27;13.18;;;;;;;;;;4975859;28;100049;-76
2022/10/23 06:44:58;;;;;;;32.17;13.45;;;;;;;;;;4977570;28;99659;-76
2022/10/23 06:47:37;;;;;;;27.08;12.65;;;;;;;;;;4986979;28;99033;-76
2022/10/23 06:50:33;;;;;;;21.45;13.70;;;;;;;;;;4987561;28;98534;-76
2022/10/23 06:53:05;;;;;;;24.25;12.85;;;;;;;;;;4991543;28;100223;-76
2022/10/23 06:55:33;;;;;;;24.23;12.90;;;;;;;;;;4994237;28;101695;-76
2022/10/23 06:58:01;;;;;;;17.90;13.93;;;;;;;;;;4991383;28;99117;-76
2022/10/23 07:00:27;;;;;;;26.08;12.75;;;;;;;;;;4988144;28;100267;-76
2022/10/23 07:02:54;;;;;;;22.38;12.85;;;;;;;;;;4987597;28;97863;-76
2022/10/23 07:05:21;;;;;;;21.52;13.10;;;;;;;;;;5002951;28;99476;-76
2022/10/23 07:07:48;;;;;;;20.20;11.90;;;;;;;;;;4987133;28;101857;-76
2022/10/23 07:10:20;;;;;;;20.88;11.80;;;;;;;;;;5000446;28;99412;-76
2022/10/23 07:12:53;;;;;;;23.42;10.15;;;;;;;;;;5006624;28;100058;-76
2022/10/23 07:15:33;;;;;;;16.50;11.18;;;;;;;;;;4990016;28;99699;-75
2022/10/23 07:18:00;;;;;;;26.10;11.10;;;;;;;;;;4993628;28;98549;-76
2022/10/23 07:20:42;;;;;;;19.90;11.55;;;;;;;;;;4983763;28;99450;-75
2022/10/23 07:23:10;;;;;;;21.63;11.63;;;;;;;;;;4982063;28;100498;-76
2022/10/23 07:25:37;;;;;;;22.50;11.02;;;;;;;;;;4988535;28;100873;-74
2022/10/23 07:28:05;;;;;;;16.58;10.52;;;;;;;;;;4972144;28;98502;-75
2022/10/23 07:30:32;;;;;;;17.48;10.38;;;;;;;;;;4990258;28;98629;-75
2022/10/23 07:33:00;;;;;;;15.38;9.55;;;;;;;;;;4988442;28;100046;-75
2022/10/23 07:35:52;;;;;;;21.50;9.73;;;;;;;;;;4976282;28;102234;-75
2022/10/23 07:38:24;;;;;;;22.38;10.13;;;;;;;;;;4993308;28;98646;-75
2022/10/23 07:40:53;;;;;;;20.10;9.88;;;;;;;;;;4991896;28;101780;-75
2022/10/23 07:43:19;;;;;;;16.95;9.18;;;;;;;;;;4991489;28;99040;-75
2022/10/23 07:45:47;;;;;;;23.13;9.57;;;;;;;;;;4992888;28;99664;-75
2022/10/23 07:48:23;;;;;;;14.73;9.30;;;;;;;;;;5002664;28;101535;-74
2022/10/23 07:51:00;;;;;;;20.90;9.43;;;;;;;;;;5012457;28;98507;-75
2022/10/23 07:53:29;;;;;;;21.73;9.68;;;;;;;;;;5014162;28;98778;-74
2022/10/23 07:56:11;;;;;;;12.05;8.65;;;;;;;;;;5010489;28;101672;-76
2022/10/23 07:58:57;;;;;;;12.38;7.57;;;;;;;;;;4999154;28;98499;-74
2022/10/23 08:01:31;;;;;;;14.45;9.35;;;;;;;;;;4995134;28;99252;-75
2022/10/23 08:03:59;;;;;;;16.95;8.55;;;;;;;;;;4990833;28;98972;-75
2022/10/23 08:06:29;;;;;;;12.35;7.45;;;;;;;;;;5010703;28;101974;-75
2022/10/23 08:09:13;;;;;;;22.38;8.13;;;;;;;;;;5012651;28;100218;-75
2022/10/23 08:11:41;;;;;;;14.85;8.30;;;;;;;;;;5011259;28;98648;-75
2022/10/23 08:14:10;;;;;;;19.27;8.30;;;;;;;;;;4994829;28;100570;-75
2022/10/23 08:16:43;;;;;;;15.63;7.78;;;;;;;;;;5006222;28;101907;-75
2022/10/23 08:19:15;;;;;;;16.38;8.20;;;;;;;;;;4993470;28;97791;-77
2022/10/23 08:21:44;;;;;;;16.17;7.55;;;;;;;;;;4991557;28;101181;-75
2022/10/23 08:24:15;;;;;;;16.17;7.63;;;;;;;;;;5007858;28;100110;-75
2022/10/23 08:26:45;;;;;;;10.55;7.03;;;;;;;;;;4991135;28;99468;-76
2022/10/23 08:29:12;;;;;;;12.40;7.72;;;;;;;;;;4989438;28;99690;-76
2022/10/23 08:31:41;;;;;;;8.88;6.57;;;;;;;;;;4986484;28;98703;-76
2022/10/23 08:34:25;;;;;;;21.60;7.32;;;;;;;;;;4971543;28;101076;-77
2022/10/23 08:36:54;;;;;;;12.82;7.10;;;;;;;;;;4987149;28;98760;-76
2022/10/23 08:39:24;;;;;;;16.10;7.50;;;;;;;;;;4990646;28;98696;-76
2022/10/23 08:42:23;;;;;;;10.50;7.22;;;;;;;;;;4988376;28;100578;-76
2022/10/23 08:45:27;;;;;;;12.75;7.10;;;;;;;;;;4970459;28;98738;-74
2022/10/23 08:48:39;;;;;;;15.82;7.75;;;;;;;;;;4990737;28;100047;-74
2022/10/23 08:51:36;;;;;;;12.30;6.32;;;;;;;;;;4998025;28;99681;-75
2022/10/23 08:54:12;;;;;;;10.80;6.35;;;;;;;;;;4982160;28;100260;-75
2022/10/23 08:56:39;;;;;;;16.88;7.45;;;;;;;;;;4990977;28;99928;-78
2022/10/23 08:59:18;;;;;;;16.98;7.05;;;;;;;;;;4989604;28;99149;-76
2022/10/23 09:01:54;;;;;;;14.00;7.23;;;;;;;;;;4991308;28;98562;-80
2022/10/23 09:04:28;;;;;;;12.15;5.82;;;;;;;;;;4991825;28;99957;-75
2022/10/23 09:07:31;;;;;;;14.15;6.32;;;;;;;;;;4989956;28;99125;-75
2022/10/23 09:10:21;;;;;;;14.13;7.28;;;;;;;;;;4991488;28;98720;-75
2022/10/23 09:13:15;;;;;;;16.92;6.60;;;;;;;;;;5008202;28;99965;-76
2022/10/23 09:15:52;;;;;;;16.88;7.35;;;;;;;;;;4992467;28;99142;-75
2022/10/23 09:18:26;;;;;;;11.50;5.85;;;;;;;;;;4992320;28;100251;-75
2022/10/23 09:21:02;;;;;;;;;;;;;;;;;;4990658;28;101152;-75
2022/10/23 09:23:32;;;;;;;7.75;5.43;;;;;;;;;;4990847;28;99950;-75
2022/10/23 09:26:10;;;;;;;11.43;5.67;;;;;;;;;;4991896;28;99341;-76
2022/10/23 09:28:50;;;;;;;9.55;5.32;;;;;;;;;;4990778;28;99518;-76
2022/10/23 09:31:19;;;;;;;11.95;5.13;;;;;;;;;;4992401;28;98449;-75
2022/10/23 09:33:58;;;;;;;13.18;5.90;;;;;;;;;;4989606;28;99536;-75
2022/10/23 09:36:27;;;;;;;9.00;5.75;;;;;;;;;;4994294;28;99942;-76
2022/10/23 09:38:57;;;;;;;12.05;6.40;;;;;;;;;;4992002;28;99924;-75
2022/10/23 09:41:28;;;;;;;14.02;5.50;;;;;;;;;;4991278;28;100223;-75
2022/10/23 09:43:59;;;;;;;14.82;5.80;;;;;;;;;;4990040;28;98941;-76
2022/10/23 09:46:37;;;;;;;12.20;5.55;;;;;;;;;;4988077;28;99331;-74
2022/10/23 09:49:20;;;;;;;8.45;5.30;;;;;;;;;;4985957;28;100072;-76
2022/10/23 09:52:15;;;;;;;10.45;5.95;;;;;;;;;;4971816;28;98478;-76
2022/10/23 09:54:45;;;;;;;10.93;5.75;;;;;;;;;;4971123;28;100051;-76
2022/10/23 09:57:18;;;;;;;12.85;6.78;;;;;;;;;;4970981;28;100618;-75
2022/10/23 09:59:45;;;;;;;;;;;;;;;;;;4988170;28;98529;-75
2022/10/23 10:02:19;;;;;;;8.30;5.78;;;;;;;;;;5000845;28;128309;-75
2022/10/23 10:05:30;;;;;;;14.98;6.32;;;;;;;;;;4980442;28;98735;-75
2022/10/23 10:08:07;;;;;;;10.57;5.53;;;;;;;;;;4987976;28;100582;-75
2022/10/23 10:10:36;;;;;;;8.70;5.50;;;;;;;;;;4991070;28;99492;-75
2022/10/23 10:13:09;;;;;;;6.85;5.20;;;;;;;;;;4993761;28;99391;-75
2022/10/23 10:15:47;;;;;;;13.18;5.30;;;;;;;;;;4995045;28;100356;-75
2022/10/23 10:18:20;;;;;;;15.18;5.25;;;;;;;;;;4987580;28;99183;-75
2022/10/23 10:21:05;;;;;;;8.52;5.00;;;;;;;;;;4997782;28;98412;-75
2022/10/23 10:23:45;;;;;;;12.32;4.55;;;;;;;;;;4993720;28;100270;-75
2022/10/23 10:26:41;;;;;;;8.57;4.15;;;;;;;;;;4994616;28;98362;-75
2022/10/23 10:29:34;;;;;;;12.35;4.70;;;;;;;;;;4990616;28;100344;-75
2022/10/23 10:32:19;;;;;;;8.23;4.53;;;;;;;;;;4993299;28;99745;-75
2022/10/23 10:34:46;;;;;;;11.65;5.13;;;;;;;;;;4992451;28;101307;-75
2022/10/23 10:37:12;;;;;;;7.13;4.28;;;;;;;;;;4976785;28;99827;-75
2022/10/23 10:40:01;;;;;;;10.20;4.28;;;;;;;;;;4977389;28;101600;-75
2022/10/23 10:42:27;;;;;;;8.35;4.18;;;;;;;;;;4995111;28;98427;-75
2022/10/23 10:45:03;;;;;;;5.25;4.13;;;;;;;;;;4996047;28;98815;-75
2022/10/23 10:47:38;;;;;;;12.02;3.72;;;;;;;;;;4994183;28;98540;-75
2022/10/23 10:50:25;;;;;;;11.35;3.85;;;;;;;;;;4992939;28;98944;-75
2022/10/23 10:53:27;;;;;;;10.38;3.90;;;;;;;;;;4992103;28;101605;-74
2022/10/23 10:55:55;;;;;;;15.40;4.70;;;;;;;;;;4994070;28;99003;-76
2022/10/23 10:58:24;;;;;;;9.00;4.68;;;;;;;;;;4994838;28;100146;-76
2022/10/23 11:00:55;;;;;;;9.05;4.20;;;;;;;;;;4993146;28;100600;-76
2022/10/23 11:03:22;;;;;;;8.02;3.95;;;;;;;;;;4994362;28;98554;-76
2022/10/23 11:05:50;;;;;;;9.43;4.28;;;;;;;;;;4991668;28;99980;-76
2022/10/23 11:08:20;;;;;;;9.65;3.80;;;;;;;;;;4997514;28;99469;-76
2022/10/23 11:10:51;;;;;;;11.65;4.03;;;;;;;;;;4991669;28;99851;-76
2022/10/23 11:13:20;;;;;;;6.78;3.55;;;;;;;;;;4984012;28;99430;-75
2022/10/23 11:15:47;;;;;;;6.25;3.47;;;;;;;;;;4988936;28;99804;-77
2022/10/23 11:18:21;;;;;;;6.93;3.63;;;;;;;;;;4987738;28;98725;-74
2022/10/23 11:20:57;;;;;;;9.90;4.18;;;;;;;;;;4987633;28;100194;-75
2022/10/23 11:23:26;;;;;;;7.50;3.58;;;;;;;;;;4986621;28;98123;-75
2022/10/23 11:25:53;;;;;;;7.55;4.43;;;;;;;;;;4992521;28;99532;-75
2022/10/23 11:28:22;;;;;;;7.90;4.07;;;;;;;;;;4992122;28;100634;-75
2022/10/23 11:31:07;;;;;;;9.90;5.10;;;;;;;;;;4990213;28;99937;-74
2022/10/23 11:33:51;;;;;;;6.35;3.90;;;;;;;;;;4989121;28;99352;-74
2022/10/23 11:36:36;;;;;;;10.32;3.83;;;;;;;;;;4983954;28;99474;-74
2022/10/23 11:39:22;;;;;;;11.32;3.58;;;;;;;;;;4985561;28;100212;-74
2022/10/23 11:41:50;;;;;;;3.88;3.20;;;;;;;;;;4992036;28;100095;-75
2022/10/23 11:44:35;;;;;;;11.63;3.75;;;;;;;;;;4991908;28;98545;-75
2022/10/23 11:47:02;;;;;;;13.05;4.35;;;;;;;;;;4991153;28;100202;-75
2022/10/23 11:49:29;;;;;;;9.07;3.85;;;;;;;;;;4994333;28;99560;-75
2022/10/23 11:52:02;;;;;;;9.10;3.88;;;;;;;;;;4992399;28;98526;-75
2022/10/23 11:54:28;;;;;;;10.32;3.25;;;;;;;;;;4994076;28;100020;-75
2022/10/23 11:56:57;;;;;;;6.38;3.35;;;;;;;;;;4989832;28;99310;-75
2022/10/23 11:59:28;;;;;;;7.38;3.22;;;;;;;;;;4990144;28;100642;-75
2022/10/23 12:01:56;;;;;;;7.82;3.47;;;;;;;;;;4990011;28;100074;-75
2022/10/23 12:04:25;;;;;;;13.13;3.70;;;;;;;;;;4990371;28;98678;-74
2022/10/23 12:06:58;;;;;;;10.23;3.88;;;;;;;;;;4991852;28;99996;-78
2022/10/23 12:09:42;;;;;;;8.00;3.05;;;;;;;;;;4990774;28;100233;-74
2022/10/23 12:12:08;;;;;;;4.53;3.03;;;;;;;;;;4992279;28;98582;-73
2022/10/23 12:14:35;;;;;;;4.72;3.20;;;;;;;;;;4995392;28;100184;-73
2022/10/23 12:17:01;;;;;;;7.10;3.63;;;;;;;;;;4991958;28;98470;-74
2022/10/23 12:19:29;;;;;;;5.57;3.40;;;;;;;;;;4992665;28;100174;-74
2022/10/23 12:21:57;;;;;;;6.95;3.35;;;;;;;;;;4991635;28;101012;-74
2022/10/23 12:24:42;;;;;;;7.78;3.72;;;;;;;;;;4991953;28;98501;-75
2022/10/23 12:27:29;;;;;;;8.48;4.25;;;;;;;;;;4992354;28;99875;-75
2022/10/23 12:30:02;;;;;;;9.25;5.13;;;;;;;;;;4990214;28;101851;-74
2022/10/23 12:32:34;;;;;;;9.93;5.38;;;;;;;;;;4989731;28;98682;-74
2022/10/23 12:35:00;;;;;;;;;;;;;;;;;;4988945;28;99277;-74
2022/10/23 12:37:37;;;;;;;10.32;3.50;;;;;;;;;;4994775;28;101312;-74
2022/10/23 12:40:08;;;;;;;7.78;3.35;;;;;;;;;;4992998;28;99917;-75
2022/10/23 12:42:34;;;;;;;4.63;2.88;;;;;;;;;;4992376;28;100230;-73
2022/10/23 12:45:17;;;;;;;7.13;3.33;;;;;;;;;;4991095;28;99032;-74
2022/10/23 12:47:45;;;;;;;14.32;3.70;;;;;;;;;;4991179;28;100572;-74
2022/10/23 12:50:17;;;;;;;10.80;4.65;;;;;;;;;;4990084;28;100270;-74
2022/10/23 12:52:54;;;;;;;17.05;4.03;;;;;;;;;;4991891;28;98854;-74
2022/10/23 12:55:24;;;;;;;7.82;3.30;;;;;;;;;;4992676;28;99688;-74
2022/10/23 12:57:51;;;;;;;6.70;3.20;;;;;;;;;;4991826;28;100172;-74
2022/10/23 13:00:19;;;;;;;7.53;3.17;;;;;;;;;;4994482;28;98489;-76
2022/10/23 13:02:46;;;;;;;6.55;3.50;;;;;;;;;;4992047;28;99244;-74
2022/10/23 13:05:15;;;;;;;5.60;3.17;;;;;;;;;;4991749;28;97751;-74
2022/10/23 13:07:45;;;;;;;9.07;3.47;;;;;;;;;;4991525;28;98685;-74
2022/10/23 13:10:16;;;;;;;7.82;3.60;;;;;;;;;;4990924;28;101486;-74
2022/10/23 13:12:57;;;;;;;4.22;3.33;;;;;;;;;;4989237;28;99545;-74
2022/10/23 13:15:24;;;;;;;6.13;3.15;;;;;;;;;;4991023;28;102200;-74
2022/10/23 13:17:56;;;;;;;5.13;3.25;;;;;;;;;;4971378;28;100228;-74
2022/10/23 13:20:28;;;;;;;14.52;3.40;;;;;;;;;;4971290;28;98421;-74
2022/10/23 13:22:59;;;;;;;7.28;3.13;;;;;;;;;;4974224;28;99930;-74
2022/10/23 13:25:28;;;;;;;11.77;3.37;;;;;;;;;;4972082;28;98503;-74
2022/10/23 13:28:12;;;;;;;5.40;3.15;;;;;;;;;;4989253;28;100684;-74
2022/10/23 13:30:45;;;;;;;7.40;3.25;;;;;;;;;;4991663;28;100090;-74
2022/10/23 13:33:15;;;;;;;6.63;3.53;;;;;;;;;;4990904;28;99200;-74
2022/10/23 13:35:41;;;;;;;5.38;2.92;;;;;;;;;;4992077;28;100232;-74
2022/10/23 13:38:07;;;;;;;4.78;2.70;;;;;;;;;;4991018;28;101170;-74
2022/10/23 13:40:34;;;;;;;6.65;2.67;;;;;;;;;;4992241;28;99062;-74
2022/10/23 13:43:00;;;;;;;5.53;2.70;;;;;;;;;;4992033;28;100368;-73
2022/10/23 13:45:27;;;;;;;10.38;2.97;;;;;;;;;;4995549;28;100175;-73
2022/10/23 13:47:53;;;;;;;6.63;2.90;;;;;;;;;;4994326;28;99865;-75
2022/10/23 13:50:19;;;;;;;4.95;2.40;;;;;;;;;;4990551;28;100469;-74
2022/10/23 13:52:46;;;;;;;4.78;2.80;;;;;;;;;;4994984;28;98559;-74
2022/10/23 13:55:21;;;;;;;4.45;2.35;;;;;;;;;;4993904;28;99204;-74
2022/10/23 13:57:47;;;;;;;6.40;2.65;;;;;;;;;;4994558;28;99931;-74
2022/10/23 14:00:15;;;;;;;4.22;2.95;;;;;;;;;;4994086;28;99393;-74
2022/10/23 14:02:41;;;;;;;8.07;3.00;;;;;;;;;;4993167;28;99933;-74
2022/10/23 14:05:11;;;;;;;9.75;2.85;;;;;;;;;;4994260;28;100371;-74
2022/10/23 14:07:37;;;;;;;5.35;2.92;;;;;;;;;;4998474;28;98634;-74
2022/10/23 14:10:06;;;;;;;7.85;2.75;;;;;;;;;;4993365;28;99437;-74
2022/10/23 14:12:44;;;;;;;10.85;3.08;;;;;;;;;;4994692;28;98627;-74
2022/10/23 14:15:13;;;;;;;6.93;3.35;;;;;;;;;;4993085;28;100067;-75
2022/10/23 14:17:41;;;;;;;6.38;3.58;;;;;;;;;;4993743;28;99479;-74
2022/10/23 14:20:08;;;;;;;5.97;3.47;;;;;;;;;;4995371;28;97747;-74
2022/10/23 14:22:35;;;;;;;8.70;3.05;;;;;;;;;;4994367;28;99617;-74
2022/10/23 14:25:01;;;;;;;7.32;3.80;;;;;;;;;;4994589;28;99438;-74
2022/10/23 14:27:32;;;;;;;5.00;3.15;;;;;;;;;;4996624;28;99369;-74
2022/10/23 14:29:59;;;;;;;8.15;3.25;;;;;;;;;;4993688;28;100540;-74
2022/10/23 14:32:28;;;;;;;5.65;2.80;;;;;;;;;;4993834;28;98637;-75
2022/10/23 14:34:55;;;;;;;6.15;2.83;;;;;;;;;;4994790;28;98783;-74
2022/10/23 14:37:26;;;;;;;9.25;2.97;;;;;;;;;;4992801;28;101126;-74
2022/10/23 14:39:55;;;;;;;14.73;3.03;;;;;;;;;;4993607;28;98656;-74
2022/10/23 14:42:23;;;;;;;7.65;2.95;;;;;;;;;;4994288;28;99134;-74
2022/10/23 14:44:51;;;;;;;4.60;2.72;;;;;;;;;;4992039;28;98482;-74
2022/10/23 14:47:20;;;;;;;4.75;2.60;;;;;;;;;;4994569;28;98477;-74
2022/10/23 14:49:51;;;;;;;7.72;3.00;;;;;;;;;;4997017;28;99867;-74
2022/10/23 14:52:18;;;;;;;10.38;3.50;;;;;;;;;;4993956;28;99212;-74
2022/10/23 14:54:44;;;;;;;6.70;2.83;;;;;;;;;;4994858;28;100891;-74